Time;durP1;ratioP1;P1;durP2;ratioP2;P2;SDS_P1;SDS_P2;PMS_P1;PMS_P2;Temp;Humidity;BMP_temperature;BMP_pressure;BME280_temperature;BME280_humidity;BME280_pressure;Samples;Min_cycle;Max_cycle;Signal;HPM_P1;HPM_P2
2021/01/06 00:01:39;;;;;;;77.20;45.75;;;;;;;;;;5017857;28;20041;-73
2021/01/06 00:04:06;;;;;;;62.63;39.08;;;;;;;;;;5016649;28;20143;-73
2021/01/06 00:06:37;;;;;;;59.70;37.55;;;;;;;;;;5031476;28;20060;-73
2021/01/06 00:09:06;;;;;;;55.38;35.30;;;;;;;;;;5050457;28;20096;-72
2021/01/06 00:11:40;;;;;;;58.03;36.65;;;;;;;;;;5020417;28;20072;-73
2021/01/06 00:14:13;;;;;;;62.28;37.70;;;;;;;;;;5016833;28;20565;-73
2021/01/06 00:16:41;;;;;;;59.15;35.30;;;;;;;;;;5002338;28;20056;-73
2021/01/06 00:19:12;;;;;;;59.20;35.47;;;;;;;;;;5015484;28;20061;-73
2021/01/06 00:21:40;;;;;;;61.27;36.63;;;;;;;;;;5032639;28;20147;-73
2021/01/06 00:24:08;;;;;;;66.18;39.13;;;;;;;;;;5050231;28;20127;-73
2021/01/06 00:26:37;;;;;;;66.55;40.50;;;;;;;;;;5032392;28;20605;-73
2021/01/06 00:29:09;;;;;;;64.75;38.83;;;;;;;;;;5032455;28;20439;-75
2021/01/06 00:31:42;;;;;;;60.72;37.42;;;;;;;;;;5032820;28;20118;-74
2021/01/06 00:34:12;;;;;;;62.00;34.75;;;;;;;;;;5016302;28;20566;-74
2021/01/06 00:36:40;;;;;;;59.90;36.28;;;;;;;;;;5015915;28;20057;-75
2021/01/06 00:39:08;;;;;;;63.08;41.60;;;;;;;;;;5015916;28;20037;-75
2021/01/06 00:41:36;;;;;;;76.20;45.40;;;;;;;;;;5051949;28;20045;-74
2021/01/06 00:44:05;;;;;;;83.03;49.85;;;;;;;;;;5015695;28;20535;-74
2021/01/06 00:46:36;;;;;;;75.20;46.75;;;;;;;;;;5032101;28;20053;-73
2021/01/06 00:49:05;;;;;;;69.77;41.53;;;;;;;;;;5015600;28;20105;-73
2021/01/06 00:51:33;;;;;;;66.22;38.17;;;;;;;;;;5051937;28;20044;-72
2021/01/06 00:54:04;;;;;;;55.83;35.65;;;;;;;;;;5016591;28;20319;-73
2021/01/06 00:56:34;;;;;;;54.30;35.83;;;;;;;;;;5015295;28;20056;-73
2021/01/06 00:59:08;;;;;;;63.95;39.25;;;;;;;;;;5021578;28;20472;-73
2021/01/06 01:01:35;;;;;;;69.68;41.17;;;;;;;;;;5015411;28;20079;-73
2021/01/06 01:04:03;;;;;;;64.03;42.17;;;;;;;;;;5035259;28;20051;-73
2021/01/06 01:06:33;;;;;;;66.90;43.03;;;;;;;;;;5031571;28;20095;-73
2021/01/06 01:09:05;;;;;;;60.27;39.97;;;;;;;;;;5049804;28;20045;-73
2021/01/06 01:11:38;;;;;;;59.13;39.25;;;;;;;;;;5031078;28;20053;-73
2021/01/06 01:14:06;;;;;;;54.60;37.05;;;;;;;;;;5015517;28;20071;-73
2021/01/06 01:16:42;;;;;;;66.47;43.25;;;;;;;;;;5034918;28;20049;-73
2021/01/06 01:19:11;;;;;;;67.15;43.15;;;;;;;;;;5033443;28;20128;-73
2021/01/06 01:21:39;;;;;;;61.20;40.13;;;;;;;;;;5031993;28;20048;-73
2021/01/06 01:24:07;;;;;;;54.72;35.97;;;;;;;;;;5015397;28;20918;-73
2021/01/06 01:26:35;;;;;;;52.10;35.35;;;;;;;;;;5015599;28;20148;-73
2021/01/06 01:29:03;;;;;;;58.72;35.83;;;;;;;;;;5030837;28;20813;-73
2021/01/06 01:31:35;;;;;;;54.33;33.35;;;;;;;;;;5033337;28;20135;-72
2021/01/06 01:34:06;;;;;;;48.28;32.20;;;;;;;;;;5032410;28;20546;-72
2021/01/06 01:36:33;;;;;;;52.72;34.13;;;;;;;;;;4998738;28;20068;-73
2021/01/06 01:39:01;;;;;;;50.03;30.52;;;;;;;;;;5030980;28;20488;-73
2021/01/06 01:41:28;;;;;;;47.25;29.75;;;;;;;;;;5031175;28;20128;-73
2021/01/06 01:43:56;;;;;;;46.65;29.08;;;;;;;;;;5033758;28;20044;-73
2021/01/06 01:47:00;;;;;;;45.58;29.38;;;;;;;;;;5030882;28;20061;-73
2021/01/06 01:49:33;;;;;;;45.83;26.48;;;;;;;;;;5003871;28;20404;-72
2021/01/06 01:52:28;;;;;;;41.97;27.23;;;;;;;;;;5018503;28;20045;-74
2021/01/06 01:54:56;;;;;;;43.50;26.85;;;;;;;;;;5032777;28;20403;-74
2021/01/06 01:57:30;;;;;;;37.40;23.92;;;;;;;;;;5014692;28;20131;-74
2021/01/06 02:00:12;;;;;;;39.00;24.35;;;;;;;;;;4999279;28;20091;-74
2021/01/06 02:03:29;;;;;;;44.90;26.77;;;;;;;;;;5017565;28;20127;-74
2021/01/06 02:06:02;;;;;;;42.25;26.75;;;;;;;;;;5053855;28;20045;-73
2021/01/06 02:09:16;;;;;;;43.38;26.80;;;;;;;;;;5052270;28;20478;-73
2021/01/06 02:11:56;;;;;;;42.88;26.30;;;;;;;;;;4953788;28;20114;-73
2021/01/06 02:14:35;;;;;;;42.78;27.20;;;;;;;;;;4956806;28;20054;-73
2021/01/06 02:17:12;;;;;;;38.92;24.90;;;;;;;;;;4968121;28;20560;-73
2021/01/06 02:19:45;;;;;;;47.28;27.45;;;;;;;;;;4951869;28;20057;-73
2021/01/06 02:22:19;;;;;;;42.83;27.30;;;;;;;;;;4951877;28;20058;-73
2021/01/06 02:24:51;;;;;;;40.05;25.38;;;;;;;;;;4967625;28;20059;-73
2021/01/06 02:27:21;;;;;;;45.03;30.63;;;;;;;;;;4967397;28;20074;-73
2021/01/06 02:29:48;;;;;;;44.28;27.95;;;;;;;;;;4982991;28;20156;-73
2021/01/06 02:32:16;;;;;;;41.88;26.42;;;;;;;;;;4966815;28;20102;-73
2021/01/06 02:34:44;;;;;;;41.55;28.17;;;;;;;;;;4967227;28;20069;-73
2021/01/06 02:37:14;;;;;;;48.90;31.23;;;;;;;;;;4951034;28;20050;-73
2021/01/06 02:39:41;;;;;;;49.70;32.40;;;;;;;;;;4951254;28;20058;-73
2021/01/06 02:42:10;;;;;;;46.85;29.58;;;;;;;;;;4952839;28;20166;-73
2021/01/06 02:44:38;;;;;;;45.58;28.73;;;;;;;;;;4984747;28;20745;-73
2021/01/06 02:47:06;;;;;;;47.80;29.00;;;;;;;;;;4960766;28;20121;-73
2021/01/06 02:49:34;;;;;;;40.38;27.67;;;;;;;;;;5048264;28;20586;-73
2021/01/06 02:52:11;;;;;;;34.90;23.85;;;;;;;;;;5014000;28;20530;-73
2021/01/06 02:54:43;;;;;;;33.35;23.30;;;;;;;;;;5014992;28;20045;-73
2021/01/06 02:57:11;;;;;;;29.63;20.02;;;;;;;;;;5016113;28;20135;-73
2021/01/06 02:59:43;;;;;;;31.00;21.50;;;;;;;;;;5014779;28;20055;-73
2021/01/06 03:02:19;;;;;;;33.22;21.48;;;;;;;;;;5019332;28;20111;-74
2021/01/06 03:05:08;;;;;;;32.60;20.25;;;;;;;;;;5018525;28;20049;-73
2021/01/06 03:07:36;;;;;;;35.40;22.63;;;;;;;;;;5015622;28;20053;-74
2021/01/06 03:10:05;;;;;;;26.63;17.48;;;;;;;;;;5030404;28;20128;-74
2021/01/06 03:12:35;;;;;;;28.65;18.30;;;;;;;;;;5014173;28;20057;-74
2021/01/06 03:15:05;;;;;;;31.95;20.45;;;;;;;;;;5014177;28;20053;-74
2021/01/06 03:17:33;;;;;;;26.95;18.17;;;;;;;;;;5014015;28;20057;-74
2021/01/06 03:20:16;;;;;;;25.13;17.08;;;;;;;;;;5016103;28;20048;-74
2021/01/06 03:22:49;;;;;;;27.52;19.42;;;;;;;;;;5004011;28;20041;-74
2021/01/06 03:25:17;;;;;;;29.17;19.23;;;;;;;;;;5018968;28;20080;-73
2021/01/06 03:27:48;;;;;;;28.60;20.58;;;;;;;;;;5030393;28;20044;-74
2021/01/06 03:30:24;;;;;;;26.67;17.58;;;;;;;;;;5013781;28;20037;-74
2021/01/06 03:33:06;;;;;;;26.08;17.73;;;;;;;;;;5030439;28;20041;-74
2021/01/06 03:35:39;;;;;;;25.88;18.30;;;;;;;;;;5022459;28;20045;-74
2021/01/06 03:38:15;;;;;;;27.52;18.40;;;;;;;;;;5021123;28;20053;-74
2021/01/06 03:40:47;;;;;;;27.67;19.40;;;;;;;;;;5050056;28;20072;-74
2021/01/06 03:43:17;;;;;;;29.25;22.55;;;;;;;;;;5002205;28;20123;-74
2021/01/06 03:45:51;;;;;;;25.08;19.52;;;;;;;;;;5022918;28;20045;-74
2021/01/06 03:48:38;;;;;;;29.30;24.38;;;;;;;;;;5021604;28;20049;-74
2021/01/06 03:51:33;;;;;;;29.23;23.83;;;;;;;;;;5020934;28;20041;-73
2021/01/06 03:54:24;;;;;;;30.17;24.90;;;;;;;;;;5052542;28;20049;-74
2021/01/06 03:56:53;;;;;;;29.23;22.75;;;;;;;;;;5040424;28;20045;-75
2021/01/06 03:59:27;;;;;;;33.22;22.08;;;;;;;;;;5003622;28;20060;-75
2021/01/06 04:02:43;;;;;;;41.33;27.75;;;;;;;;;;5019230;28;20538;-75
2021/01/06 04:05:15;;;;;;;35.72;22.83;;;;;;;;;;5032605;28;20470;-74
2021/01/06 04:07:48;;;;;;;28.67;19.08;;;;;;;;;;5017736;28;20123;-73
2021/01/06 04:10:25;;;;;;;32.47;22.67;;;;;;;;;;5034717;28;20073;-73
2021/01/06 04:12:53;;;;;;;28.15;18.73;;;;;;;;;;5006704;28;20550;-73
2021/01/06 04:15:20;;;;;;;29.10;21.45;;;;;;;;;;5055604;28;20045;-73
2021/01/06 04:17:52;;;;;;;31.38;21.67;;;;;;;;;;5016735;28;20069;-73
2021/01/06 04:20:37;;;;;;;29.00;17.98;;;;;;;;;;5018817;28;20049;-73
2021/01/06 04:23:14;;;;;;;23.73;15.77;;;;;;;;;;5000655;28;20057;-73
2021/01/06 04:25:48;;;;;;;25.42;15.68;;;;;;;;;;5023397;28;20492;-73
2021/01/06 04:28:27;;;;;;;21.20;14.55;;;;;;;;;;5033098;28;20091;-74
2021/01/06 04:31:05;;;;;;;23.17;15.57;;;;;;;;;;5034720;28;20235;-73
2021/01/06 04:33:45;;;;;;;23.23;14.98;;;;;;;;;;5048842;28;20115;-73
2021/01/06 04:36:19;;;;;;;18.08;13.15;;;;;;;;;;5016289;28;20060;-73
2021/01/06 04:38:50;;;;;;;18.75;13.13;;;;;;;;;;5019784;28;20140;-73
2021/01/06 04:41:24;;;;;;;20.33;13.55;;;;;;;;;;5034819;28;20053;-73
2021/01/06 04:44:12;;;;;;;20.08;14.23;;;;;;;;;;5050660;28;20131;-73
2021/01/06 04:46:49;;;;;;;18.13;13.73;;;;;;;;;;5035778;28;20052;-73
2021/01/06 04:49:44;;;;;;;26.30;19.40;;;;;;;;;;5035197;28;20051;-73
2021/01/06 04:52:30;;;;;;;28.98;20.27;;;;;;;;;;5050669;28;20056;-73
2021/01/06 04:55:36;;;;;;;33.70;25.50;;;;;;;;;;5036691;28;20049;-73
2021/01/06 04:58:18;;;;;;;47.95;31.65;;;;;;;;;;5001504;28;20061;-73
2021/01/06 05:01:25;;;;;;;35.92;26.10;;;;;;;;;;5038152;28;20759;-73
2021/01/06 05:04:36;;;;;;;51.78;32.63;;;;;;;;;;5052798;28;20037;-73
2021/01/06 05:07:26;;;;;;;39.53;26.92;;;;;;;;;;5050365;28;20918;-73
2021/01/06 05:10:27;;;;;;;39.33;26.90;;;;;;;;;;5053257;28;20099;-73
2021/01/06 05:13:01;;;;;;;28.58;20.13;;;;;;;;;;5035405;28;20041;-72
2021/01/06 05:15:59;;;;;;;28.63;21.13;;;;;;;;;;5015830;28;20060;-73
2021/01/06 05:18:27;;;;;;;24.92;20.00;;;;;;;;;;5031466;28;20575;-72
2021/01/06 05:20:56;;;;;;;25.70;19.40;;;;;;;;;;5031727;28;20045;-72
2021/01/06 05:23:28;;;;;;;31.35;25.83;;;;;;;;;;5015142;28;20183;-72
2021/01/06 05:25:59;;;;;;;30.42;24.90;;;;;;;;;;5020713;28;20151;-72
2021/01/06 05:28:27;;;;;;;34.42;26.60;;;;;;;;;;5031595;28;20071;-72
2021/01/06 05:30:58;;;;;;;34.53;27.33;;;;;;;;;;5026532;28;20089;-73
2021/01/06 05:33:44;;;;;;;37.63;30.35;;;;;;;;;;4997831;28;20052;-72
2021/01/06 05:36:25;;;;;;;39.70;30.33;;;;;;;;;;5001168;28;20049;-72
2021/01/06 05:38:54;;;;;;;35.72;31.67;;;;;;;;;;4999654;28;20042;-72
2021/01/06 05:41:21;;;;;;;29.33;26.13;;;;;;;;;;4995519;28;20053;-72
2021/01/06 05:43:53;;;;;;;40.47;32.67;;;;;;;;;;4995490;28;20151;-72
2021/01/06 05:46:31;;;;;;;32.80;26.48;;;;;;;;;;4995505;28;20090;-73
2021/01/06 05:49:12;;;;;;;24.73;19.98;;;;;;;;;;5032725;28;20049;-72
2021/01/06 05:51:58;;;;;;;21.85;16.90;;;;;;;;;;5018424;28;20116;-72
2021/01/06 05:54:55;;;;;;;14.48;11.20;;;;;;;;;;5012399;28;20056;-72
2021/01/06 05:57:48;;;;;;;15.75;11.73;;;;;;;;;;5015628;28;20492;-72
2021/01/06 06:00:26;;;;;;;15.82;11.23;;;;;;;;;;5003165;28;20049;-72
2021/01/06 06:03:23;;;;;;;17.33;11.80;;;;;;;;;;5035397;28;20045;-72
2021/01/06 06:06:18;;;;;;;21.00;15.32;;;;;;;;;;4995519;28;20061;-72
2021/01/06 06:08:59;;;;;;;20.30;13.45;;;;;;;;;;5017449;28;20408;-72
2021/01/06 06:11:53;;;;;;;20.10;15.35;;;;;;;;;;5027812;28;20049;-72
2021/01/06 06:15:15;;;;;;;21.77;15.85;;;;;;;;;;5011010;28;20046;-73
2021/01/06 06:18:17;;;;;;;19.85;13.95;;;;;;;;;;4956996;28;20141;-72
2021/01/06 06:21:19;;;;;;;19.08;14.52;;;;;;;;;;4938767;28;20069;-73
2021/01/06 06:24:26;;;;;;;27.65;15.05;;;;;;;;;;4970146;28;20054;-73
2021/01/06 06:27:25;;;;;;;23.58;16.10;;;;;;;;;;4972339;28;20059;-73
2021/01/06 06:30:25;;;;;;;27.33;17.60;;;;;;;;;;4953561;28;20141;-72
2021/01/06 06:32:53;;;;;;;31.65;18.95;;;;;;;;;;4952728;28;20058;-73
2021/01/06 06:35:38;;;;;;;28.42;17.45;;;;;;;;;;4967650;28;20067;-74
2021/01/06 06:38:08;;;;;;;30.25;19.50;;;;;;;;;;4967027;28;20107;-74
2021/01/06 06:41:06;;;;;;;29.20;18.65;;;;;;;;;;4951462;28;20513;-74
2021/01/06 06:43:47;;;;;;;25.00;18.90;;;;;;;;;;4954597;28;20069;-73
2021/01/06 06:46:23;;;;;;;30.25;20.05;;;;;;;;;;4967594;28;20066;-73
2021/01/06 06:49:11;;;;;;;25.13;17.00;;;;;;;;;;4974031;28;20066;-74
2021/01/06 06:51:59;;;;;;;29.75;20.40;;;;;;;;;;5010204;28;20058;-74
2021/01/06 06:54:55;;;;;;;27.70;20.25;;;;;;;;;;5004281;28;20125;-73
2021/01/06 06:57:46;;;;;;;29.00;19.70;;;;;;;;;;4988218;28;20058;-74
2021/01/06 07:00:20;;;;;;;30.17;21.25;;;;;;;;;;4974136;28;20050;-73
2021/01/06 07:03:06;;;;;;;33.28;24.63;;;;;;;;;;4986760;28;20058;-73
2021/01/06 07:05:56;;;;;;;33.10;20.90;;;;;;;;;;5009398;28;20061;-73
2021/01/06 07:08:47;;;;;;;26.70;19.13;;;;;;;;;;5013948;28;20077;-74
2021/01/06 07:11:22;;;;;;;30.35;19.65;;;;;;;;;;5023572;28;20055;-74
2021/01/06 07:14:28;;;;;;;32.42;20.80;;;;;;;;;;5060357;28;20087;-73
2021/01/06 07:17:32;;;;;;;33.65;20.20;;;;;;;;;;5035019;28;20570;-73
2021/01/06 07:20:07;;;;;;;62.65;41.08;;;;;;;;;;5041265;28;20040;-73
2021/01/06 07:22:46;;;;;;;80.88;52.72;;;;;;;;;;5055707;28;20044;-73
2021/01/06 07:25:17;;;;;;;40.22;24.48;;;;;;;;;;5037935;28;20136;-73
2021/01/06 07:27:58;;;;;;;40.67;26.75;;;;;;;;;;5041684;28;20049;-79
2021/01/06 07:30:37;;;;;;;35.92;23.60;;;;;;;;;;5034716;28;20147;-73
2021/01/06 07:36:16;;;;;;;38.95;25.85;;;;;;;;;;5050962;28;20140;-73
2021/01/06 07:38:46;;;;;;;43.78;27.30;;;;;;;;;;5073156;28;20048;-73
2021/01/06 07:41:15;;;;;;;41.70;27.95;;;;;;;;;;5050803;28;20454;-73
2021/01/06 07:44:05;;;;;;;58.10;37.00;;;;;;;;;;5038309;28;20116;-73
2021/01/06 07:47:02;;;;;;;49.03;31.38;;;;;;;;;;5056918;28;20044;-73
2021/01/06 07:49:47;;;;;;;40.00;25.65;;;;;;;;;;5058467;28;20144;-72
2021/01/06 07:52:53;;;;;;;44.13;30.05;;;;;;;;;;5057222;28;20048;-73
2021/01/06 07:55:59;;;;;;;38.60;26.38;;;;;;;;;;5051406;28;20067;-73
2021/01/06 07:58:42;;;;;;;37.28;26.35;;;;;;;;;;5000798;28;20057;-72
2021/01/06 08:02:10;;;;;;;30.48;21.67;;;;;;;;;;5056909;28;20041;-72
2021/01/06 08:04:55;;;;;;;34.15;23.48;;;;;;;;;;4972690;28;20059;-79
2021/01/06 08:07:27;;;;;;;32.22;23.33;;;;;;;;;;4974542;28;20914;-78
2021/01/06 08:09:55;;;;;;;41.25;27.00;;;;;;;;;;4956629;28;20062;-78
2021/01/06 08:12:25;;;;;;;41.13;27.88;;;;;;;;;;4972555;28;20063;-78
2021/01/06 08:15:17;;;;;;;46.53;30.10;;;;;;;;;;4957585;28;20413;-78
2021/01/06 08:18:03;;;;;;;40.25;24.38;;;;;;;;;;4978824;28;20471;-78
2021/01/06 08:21:05;;;;;;;37.92;25.95;;;;;;;;;;4972149;28;20158;-78
2021/01/06 08:24:09;;;;;;;53.67;34.28;;;;;;;;;;4962489;28;20047;-78
2021/01/06 08:26:46;;;;;;;37.25;26.70;;;;;;;;;;4978866;28;20063;-79
2021/01/06 08:29:28;;;;;;;48.53;32.10;;;;;;;;;;4974161;28;20067;-79
2021/01/06 08:32:04;;;;;;;50.60;34.77;;;;;;;;;;4990109;28;20063;-79
2021/01/06 08:34:58;;;;;;;54.90;36.25;;;;;;;;;;4990390;28;20307;-78
2021/01/06 08:37:33;;;;;;;48.60;31.85;;;;;;;;;;4991958;28;20069;-78
2021/01/06 08:40:07;;;;;;;48.33;30.70;;;;;;;;;;4984931;28;20062;-79
2021/01/06 08:42:47;;;;;;;43.00;32.88;;;;;;;;;;5043463;28;20118;-78
2021/01/06 08:45:32;;;;;;;37.25;28.85;;;;;;;;;;5008177;28;20048;-78
2021/01/06 08:48:35;;;;;;;44.90;33.08;;;;;;;;;;5039408;28;20477;-78
2021/01/06 08:51:13;;;;;;;38.85;28.83;;;;;;;;;;5020603;28;20189;-78
2021/01/06 08:54:00;;;;;;;40.90;27.23;;;;;;;;;;5037517;28;20391;-78
2021/01/06 08:56:29;;;;;;;44.67;32.15;;;;;;;;;;5023133;28;20056;-79
2021/01/06 08:58:58;;;;;;;57.75;38.42;;;;;;;;;;5041918;28;20068;-77
2021/01/06 09:01:49;;;;;;;49.90;34.97;;;;;;;;;;5049752;28;20576;-77
2021/01/06 09:04:37;;;;;;;49.35;32.15;;;;;;;;;;5033506;28;20554;-77
2021/01/06 09:07:07;;;;;;;46.90;34.03;;;;;;;;;;5039712;28;20143;-77
2021/01/06 09:09:59;;;;;;;45.25;34.08;;;;;;;;;;5057717;28;20049;-77
2021/01/06 09:12:48;;;;;;;47.53;34.25;;;;;;;;;;5033991;28;20388;-77
2021/01/06 09:15:32;;;;;;;51.83;36.88;;;;;;;;;;5054510;28;20538;-78
2021/01/06 09:18:24;;;;;;;53.90;36.75;;;;;;;;;;5036132;28;20114;-78
2021/01/06 09:21:08;;;;;;;48.92;34.78;;;;;;;;;;5024386;28;20115;-77
2021/01/06 09:23:37;;;;;;;53.28;36.67;;;;;;;;;;5055554;28;20045;-78
2021/01/06 09:26:05;;;;;;;57.08;40.78;;;;;;;;;;5049655;28;20056;-78
2021/01/06 09:28:37;;;;;;;53.47;38.80;;;;;;;;;;5033349;28;20053;-78
2021/01/06 09:31:06;;;;;;;63.03;43.22;;;;;;;;;;5020506;28;20139;-77
2021/01/06 09:33:38;;;;;;;82.00;55.15;;;;;;;;;;5049675;28;20061;-77
2021/01/06 09:36:07;;;;;;;72.63;47.05;;;;;;;;;;5021628;28;20074;-78
2021/01/06 09:38:49;;;;;;;69.45;45.60;;;;;;;;;;5033402;28;20048;-77
2021/01/06 09:41:24;;;;;;;47.10;32.85;;;;;;;;;;5039935;28;20495;-77
2021/01/06 09:43:59;;;;;;;54.15;36.05;;;;;;;;;;5050021;28;20053;-78
2021/01/06 09:47:05;;;;;;;49.60;34.15;;;;;;;;;;5054724;28;20037;-77
2021/01/06 09:49:40;;;;;;;49.95;34.85;;;;;;;;;;5023817;28;20043;-78
2021/01/06 09:52:36;;;;;;;56.95;42.00;;;;;;;;;;5001266;28;20045;-78
2021/01/06 09:55:07;;;;;;;56.13;38.25;;;;;;;;;;5055911;28;20381;-79
2021/01/06 09:57:34;;;;;;;53.22;35.45;;;;;;;;;;5066420;28;20084;-78
2021/01/06 10:00:41;;;;;;;52.78;37.40;;;;;;;;;;5034464;28;20111;-77
2021/01/06 10:03:10;;;;;;;45.17;33.50;;;;;;;;;;5054129;28;20051;-77
2021/01/06 10:05:51;;;;;;;51.47;37.58;;;;;;;;;;5056258;28;20075;-77
2021/01/06 10:08:34;;;;;;;48.20;33.70;;;;;;;;;;5036126;28;20096;-79
2021/01/06 10:11:27;;;;;;;54.88;38.67;;;;;;;;;;5019481;28;20083;-79
2021/01/06 10:14:43;;;;;;;49.72;33.20;;;;;;;;;;4974725;28;20169;-85
2021/01/06 10:17:54;;;;;;;43.95;34.53;;;;;;;;;;4963849;28;20146;-82
2021/01/06 10:21:06;;;;;;;49.85;32.63;;;;;;;;;;4984539;28;20057;-83
2021/01/06 10:24:07;;;;;;;44.95;34.70;;;;;;;;;;4991350;28;20132;-82
2021/01/06 10:26:51;;;;;;;44.83;33.85;;;;;;;;;;4984828;28;20185;-78
2021/01/06 10:29:39;;;;;;;52.20;36.65;;;;;;;;;;4981334;28;20135;-80
2021/01/06 10:32:45;;;;;;;49.72;37.25;;;;;;;;;;4991248;28;20537;-81
2021/01/06 10:35:27;;;;;;;46.58;32.00;;;;;;;;;;4981485;28;20133;-80
2021/01/06 10:37:55;;;;;;;47.15;33.30;;;;;;;;;;4962754;28;20494;-78
2021/01/06 10:40:43;;;;;;;42.08;32.72;;;;;;;;;;4958230;28;20110;-80
2021/01/06 10:43:47;;;;;;;44.08;31.35;;;;;;;;;;4958742;28;20058;-79
2021/01/06 10:46:50;;;;;;;39.83;29.88;;;;;;;;;;4969324;28;20042;-82
2021/01/06 10:49:23;;;;;;;42.40;29.67;;;;;;;;;;4995162;28;20541;-80
2021/01/06 10:51:54;;;;;;;51.05;38.75;;;;;;;;;;5033387;28;20064;-78
2021/01/06 10:54:54;;;;;;;66.68;43.47;;;;;;;;;;5056275;28;20045;-79
2021/01/06 10:57:59;;;;;;;46.90;35.03;;;;;;;;;;5042659;28;20644;-81
2021/01/06 11:00:37;;;;;;;48.05;35.58;;;;;;;;;;5039232;28;20385;-80
2021/01/06 11:03:33;;;;;;;57.75;41.95;;;;;;;;;;5052201;28;20045;-74
2021/01/06 11:06:42;;;;;;;68.88;46.08;;;;;;;;;;5073629;28;20071;-72
2021/01/06 11:09:40;;;;;;;56.65;42.78;;;;;;;;;;5072592;28;20124;-74
2021/01/06 11:13:03;;;;;;;53.30;39.47;;;;;;;;;;5058718;28;20059;-74
2021/01/06 11:16:13;;;;;;;73.50;54.50;;;;;;;;;;5018060;28;20068;-73
2021/01/06 11:18:52;;;;;;;64.22;52.55;;;;;;;;;;4974558;28;20062;-73
2021/01/06 11:21:41;;;;;;;62.45;44.55;;;;;;;;;;4953016;28;20047;-73
2021/01/06 11:24:54;;;;;;;56.85;38.78;;;;;;;;;;4957546;28;20058;-72
2021/01/06 11:27:45;;;;;;;50.58;34.53;;;;;;;;;;4974497;28;20418;-73
2021/01/06 11:30:24;;;;;;;53.55;33.28;;;;;;;;;;4972179;28;20063;-74
2021/01/06 11:33:14;;;;;;;73.13;50.60;;;;;;;;;;4979088;28;20169;-73
2021/01/06 11:35:57;;;;;;;73.90;55.50;;;;;;;;;;4970220;28;20906;-72
2021/01/06 11:38:40;;;;;;;84.30;63.30;;;;;;;;;;4945031;28;20142;-74
2021/01/06 11:41:15;;;;;;;50.00;35.25;;;;;;;;;;4974203;28;20062;-73
2021/01/06 11:43:52;;;;;;;45.17;32.13;;;;;;;;;;4958539;28;20062;-73
2021/01/06 11:46:26;;;;;;;49.13;35.20;;;;;;;;;;4970110;28;20054;-73
2021/01/06 11:49:10;;;;;;;57.03;41.03;;;;;;;;;;4969678;28;20491;-74
2021/01/06 11:51:40;;;;;;;56.38;37.53;;;;;;;;;;4958864;28;20564;-73
2021/01/06 11:54:29;;;;;;;45.83;34.38;;;;;;;;;;4940627;28;20125;-73
2021/01/06 11:57:10;;;;;;;64.05;46.25;;;;;;;;;;5019615;28;20048;-73
2021/01/06 12:00:06;;;;;;;52.28;38.65;;;;;;;;;;5025186;28;20459;-73
2021/01/06 12:02:40;;;;;;;62.92;43.22;;;;;;;;;;4974807;28;20066;-74
2021/01/06 12:05:31;;;;;;;63.08;42.88;;;;;;;;;;4946028;28;20705;-70
2021/01/06 12:08:20;;;;;;;49.53;35.85;;;;;;;;;;4947146;28;20058;-72
2021/01/06 12:11:26;;;;;;;47.70;33.72;;;;;;;;;;4943898;28;20054;-72
2021/01/06 12:14:35;;;;;;;50.47;33.33;;;;;;;;;;4946338;28;20081;-72
2021/01/06 12:17:22;;;;;;;45.05;31.08;;;;;;;;;;4906012;29;20396;-72
2021/01/06 12:20:34;;;;;;;37.65;28.15;;;;;;;;;;4921798;29;20614;-72
2021/01/06 12:23:16;;;;;;;54.25;33.92;;;;;;;;;;4892081;29;20066;-72
2021/01/06 12:25:58;;;;;;;53.58;35.22;;;;;;;;;;4922026;28;20044;-72
2021/01/06 12:28:34;;;;;;;48.22;31.92;;;;;;;;;;4912084;28;20057;-72
2021/01/06 12:31:22;;;;;;;46.65;30.42;;;;;;;;;;4911780;28;20063;-71
2021/01/06 12:34:39;;;;;;;63.22;38.45;;;;;;;;;;4910549;28;20114;-73
2021/01/06 12:37:23;;;;;;;60.75;44.60;;;;;;;;;;4907026;29;20598;-72
2021/01/06 12:40:05;;;;;;;51.45;34.03;;;;;;;;;;4910188;29;20142;-72
2021/01/06 12:42:54;;;;;;;49.28;34.17;;;;;;;;;;4951094;28;20058;-72
2021/01/06 12:45:37;;;;;;;57.20;37.58;;;;;;;;;;4905140;29;20070;-71
2021/01/06 12:48:21;;;;;;;84.20;49.70;;;;;;;;;;4935573;29;20059;-71
2021/01/06 12:50:59;;;;;;;87.00;47.65;;;;;;;;;;4923923;29;20173;-70
2021/01/06 12:53:39;;;;;;;71.95;46.08;;;;;;;;;;4916475;28;20214;-72
2021/01/06 12:56:14;;;;;;;67.28;42.70;;;;;;;;;;4961180;28;20141;-71
2021/01/06 12:58:47;;;;;;;47.67;32.72;;;;;;;;;;4974621;28;20058;-71
2021/01/06 13:01:25;;;;;;;67.18;42.67;;;;;;;;;;4956874;28;20165;-71
2021/01/06 13:03:59;;;;;;;57.00;38.55;;;;;;;;;;4956437;28;20089;-71
2021/01/06 13:06:47;;;;;;;69.55;43.13;;;;;;;;;;4990237;28;20102;-71
2021/01/06 13:09:34;;;;;;;73.80;47.17;;;;;;;;;;4973846;28;20050;-70
2021/01/06 13:12:21;;;;;;;70.00;41.40;;;;;;;;;;4975571;28;20069;-70
2021/01/06 13:15:27;;;;;;;77.35;41.78;;;;;;;;;;5037806;28;20380;-71
2021/01/06 13:18:06;;;;;;;62.22;38.45;;;;;;;;;;5000574;28;20071;-71
2021/01/06 13:21:31;;;;;;;64.82;41.58;;;;;;;;;;4984175;28;20061;-71
2021/01/06 13:24:00;;;;;;;49.40;32.47;;;;;;;;;;4928216;28;20058;-71
2021/01/06 13:26:58;;;;;;;62.78;41.00;;;;;;;;;;4942103;28;20054;-71
2021/01/06 13:29:34;;;;;;;65.80;38.90;;;;;;;;;;4960365;28;20203;-71
2021/01/06 13:32:36;;;;;;;90.88;54.30;;;;;;;;;;4955223;28;20476;-71
2021/01/06 13:35:25;;;;;;;93.18;49.58;;;;;;;;;;4957816;28;20149;-71
2021/01/06 13:38:40;;;;;;;113.15;63.42;;;;;;;;;;4960704;28;20106;-73
2021/01/06 13:41:33;;;;;;;104.32;57.60;;;;;;;;;;4917478;28;20051;-72
2021/01/06 13:44:16;;;;;;;94.72;52.70;;;;;;;;;;4922732;28;20146;-72
2021/01/06 13:46:54;;;;;;;73.30;41.08;;;;;;;;;;4966362;28;20058;-72
2021/01/06 13:49:42;;;;;;;61.70;39.30;;;;;;;;;;4923340;28;20069;-73
2021/01/06 13:52:37;;;;;;;51.95;33.42;;;;;;;;;;4919747;28;20111;-74
2021/01/06 13:55:31;;;;;;;55.22;35.35;;;;;;;;;;4885160;29;20064;-72
2021/01/06 13:58:26;;;;;;;84.13;49.10;;;;;;;;;;4902151;29;20063;-72
2021/01/06 14:01:16;;;;;;;62.47;39.30;;;;;;;;;;4968987;28;20125;-71
2021/01/06 14:04:02;;;;;;;58.38;38.17;;;;;;;;;;4955969;28;20699;-72
2021/01/06 14:06:32;;;;;;;58.20;37.22;;;;;;;;;;4970130;28;20780;-72
2021/01/06 14:09:17;;;;;;;47.35;31.50;;;;;;;;;;4942765;28;20097;-72
2021/01/06 14:12:27;;;;;;;48.00;32.17;;;;;;;;;;4954781;28;20065;-72
2021/01/06 14:15:24;;;;;;;53.78;38.40;;;;;;;;;;4967342;28;20055;-72
2021/01/06 14:18:23;;;;;;;61.92;42.42;;;;;;;;;;4969017;28;20114;-72
2021/01/06 14:21:04;;;;;;;57.85;39.78;;;;;;;;;;4937027;28;20054;-72
2021/01/06 14:23:52;;;;;;;78.10;43.50;;;;;;;;;;4957113;28;20054;-73
2021/01/06 14:27:09;;;;;;;74.45;45.30;;;;;;;;;;4939325;28;20820;-74
2021/01/06 14:29:49;;;;;;;76.03;43.67;;;;;;;;;;4967347;28;20051;-71
2021/01/06 14:32:18;;;;;;;72.47;42.75;;;;;;;;;;4988293;28;20092;-71
2021/01/06 14:35:14;;;;;;;68.63;43.13;;;;;;;;;;5012579;28;20275;-71
2021/01/06 14:38:13;;;;;;;72.10;43.00;;;;;;;;;;5014666;28;20048;-72
2021/01/06 14:41:16;;;;;;;96.38;65.03;;;;;;;;;;5010013;28;20044;-72
2021/01/06 14:43:58;;;;;;;;;;;;;;;;;;5005981;28;20061;-72
2021/01/06 14:47:06;;;;;;;92.55;55.53;;;;;;;;;;5032590;28;19920;-72
2021/01/06 14:49:37;;;;;;;98.60;58.83;;;;;;;;;;5040586;28;20472;-74
2021/01/06 14:52:28;;;;;;;95.97;60.25;;;;;;;;;;5006467;28;20049;-72
2021/01/06 14:55:27;;;;;;;102.63;61.85;;;;;;;;;;5024175;28;20069;-73
2021/01/06 14:58:00;;;;;;;149.57;84.68;;;;;;;;;;5021986;28;20055;-73
2021/01/06 15:00:57;;;;;;;136.48;79.10;;;;;;;;;;5019822;28;20529;-75
2021/01/06 15:04:04;;;;;;;144.20;80.57;;;;;;;;;;5035411;28;20099;-73
2021/01/06 15:07:07;;;;;;;95.28;57.95;;;;;;;;;;5019783;28;20060;-73
2021/01/06 15:10:03;;;;;;;95.18;56.13;;;;;;;;;;5018578;28;20065;-72
2021/01/06 15:13:08;;;;;;;101.30;58.40;;;;;;;;;;5031204;28;20048;-73
2021/01/06 15:15:52;;;;;;;91.90;52.85;;;;;;;;;;4917040;29;20063;-73
2021/01/06 15:18:21;;;;;;;117.15;65.57;;;;;;;;;;4895202;29;20107;-73
2021/01/06 15:20:54;;;;;;;125.22;74.32;;;;;;;;;;4902115;29;20054;-73
2021/01/06 15:23:35;;;;;;;109.05;65.45;;;;;;;;;;4902999;29;20641;-73
2021/01/06 15:26:26;;;;;;;117.38;64.78;;;;;;;;;;4905407;29;20145;-73
2021/01/06 15:28:59;;;;;;;121.82;69.95;;;;;;;;;;4905881;29;20051;-73
2021/01/06 15:31:35;;;;;;;105.50;61.38;;;;;;;;;;4893921;29;20063;-72
2021/01/06 15:34:24;;;;;;;108.65;60.38;;;;;;;;;;4894794;28;20093;-72
2021/01/06 15:36:55;;;;;;;111.35;61.15;;;;;;;;;;4938521;29;20050;-72
2021/01/06 15:39:28;;;;;;;103.53;56.05;;;;;;;;;;4938514;28;20070;-72
2021/01/06 15:42:23;;;;;;;100.78;58.00;;;;;;;;;;4907892;29;20130;-72
2021/01/06 15:44:57;;;;;;;102.60;57.33;;;;;;;;;;4907636;29;20594;-71
2021/01/06 15:47:38;;;;;;;109.57;69.43;;;;;;;;;;4925326;28;20907;-73
2021/01/06 15:50:28;;;;;;;109.45;64.53;;;;;;;;;;4933742;29;20167;-72